Time;durP1;ratioP1;P1;durP2;ratioP2;P2;SDS_P1;SDS_P2;PMS_P1;PMS_P2;Temp;Humidity;BMP_temperature;BMP_pressure;BME280_temperature;BME280_humidity;BME280_pressure;Samples;Min_cycle;Max_cycle;Signal;HPM_P1;HPM_P2
2023/11/13 00:01:50;;;;;;;1999.90;999.90;;;;;;;12.06;64.82;100676.75;10403425;28;20056;-63
2023/11/13 00:06:53;;;;;;;1999.90;999.90;;;;;;;12.48;63.67;100681.88;10401948;28;20473;-62
2023/11/13 00:11:55;;;;;;;1999.90;999.90;;;;;;;12.69;62.36;100666.44;10420678;28;20107;-63
2023/11/13 00:16:58;;;;;;;1999.90;999.90;;;;;;;11.63;66.53;100648.00;10420290;28;20488;-62
2023/11/13 00:22:00;;;;;;;1999.90;999.90;;;;;;;12.53;63.59;100658.78;10420247;28;20081;-62
2023/11/13 00:27:03;;;;;;;1999.90;999.90;;;;;;;11.91;65.65;100670.72;10419870;28;20132;-63
2023/11/13 00:32:05;;;;;;;1999.90;999.90;;;;;;;12.67;64.08;100648.16;10419790;28;20441;-62
2023/11/13 00:37:08;;;;;;;1999.90;999.90;;;;;;;12.02;66.60;100636.75;10419779;28;20049;-63
2023/11/13 00:42:11;;;;;;;1999.90;999.90;;;;;;;11.68;65.43;100633.69;10418240;28;20057;-63
2023/11/13 00:47:13;;;;;;;1999.90;999.90;;;;;;;12.23;66.08;100628.38;10401667;28;20473;-62
2023/11/13 00:52:15;;;;;;;1999.90;999.90;;;;;;;11.93;66.65;100602.41;10419117;28;20052;-63
2023/11/13 00:57:18;;;;;;;1999.90;999.90;;;;;;;11.85;67.39;100606.34;10419107;28;20050;-63
2023/11/13 01:02:22;;;;;;;1999.90;999.90;;;;;;;11.97;68.10;100622.22;10401278;28;20063;-63
2023/11/13 01:07:25;;;;;;;1999.90;999.90;;;;;;;11.97;66.17;100620.47;10418335;28;20046;-63
2023/11/13 01:12:27;;;;;;;1999.90;999.90;;;;;;;12.19;67.59;100605.94;10418600;28;20057;-63
2023/11/13 01:17:30;;;;;;;1999.90;999.90;;;;;;;12.35;65.58;100589.97;10417685;28;20041;-63
2023/11/13 01:22:33;;;;;;;1999.90;999.90;;;;;;;12.71;64.90;100581.34;10400348;28;20065;-63
2023/11/13 01:27:35;;;;;;;1999.90;999.90;;;;;;;12.28;67.17;100581.66;10417652;28;20060;-63
2023/11/13 01:32:37;;;;;;;1999.90;999.90;;;;;;;12.47;67.09;100570.75;10417374;28;20053;-63
2023/11/13 01:37:40;;;;;;;1999.90;999.90;;;;;;;11.96;66.70;100578.59;10417330;28;20050;-62
2023/11/13 01:42:42;;;;;;;1999.90;999.90;;;;;;;12.72;66.10;100583.00;10417025;28;20504;-63
2023/11/13 01:47:46;;;;;;;1999.90;999.90;;;;;;;12.93;65.07;100583.31;10399470;28;20124;-63
2023/11/13 01:52:48;;;;;;;1999.90;999.90;;;;;;;13.45;63.20;100594.53;10416812;28;20079;-63
2023/11/13 01:57:51;;;;;;;1999.90;999.90;;;;;;;12.44;65.87;100576.22;10398869;28;20046;-63
2023/11/13 02:02:54;;;;;;;1999.90;999.90;;;;;;;12.55;66.74;100578.09;10416359;28;20084;-63
2023/11/13 02:07:56;;;;;;;1999.90;999.90;;;;;;;12.67;64.79;100579.03;10398446;28;20049;-63
2023/11/13 02:12:59;;;;;;;1999.90;999.90;;;;;;;13.01;64.21;100583.59;10416083;28;20062;-63
2023/11/13 02:18:03;;;;;;;1999.90;999.90;;;;;;;13.26;63.76;100578.38;10415763;28;20045;-63
2023/11/13 02:23:06;;;;;;;1999.90;999.90;;;;;;;12.79;64.31;100555.38;10398261;28;20057;-63
2023/11/13 02:28:09;;;;;;;1999.90;999.90;;;;;;;12.83;64.97;100541.06;10414794;28;20077;-63
2023/11/13 02:33:12;;;;;;;1999.90;999.90;;;;;;;12.47;66.81;100538.41;10415438;28;20049;-63
2023/11/13 02:38:14;;;;;;;1999.90;999.90;;;;;;;13.05;64.07;100529.03;10415364;28;20051;-63
2023/11/13 02:43:16;;;;;;;1999.90;999.90;;;;;;;12.52;66.31;100528.41;10415185;28;20053;-63
2023/11/13 02:48:19;;;;;;;1999.90;999.90;;;;;;;13.02;62.72;100519.56;10415208;28;20099;-63
2023/11/13 02:53:21;;;;;;;1999.90;999.90;;;;;;;12.95;64.30;100504.38;10414985;28;20056;-63
2023/11/13 02:58:24;;;;;;;1999.90;999.90;;;;;;;12.30;66.53;100505.44;10414807;28;20404;-63
2023/11/13 03:03:26;;;;;;;1999.90;999.90;;;;;;;12.37;66.74;100494.41;10414670;28;20124;-63
2023/11/13 03:08:29;;;;;;;1999.90;999.90;;;;;;;13.16;65.15;100491.44;10414552;28;20081;-63
2023/11/13 03:13:31;;;;;;;1999.90;999.90;;;;;;;12.88;65.60;100500.47;10414673;28;20059;-63
2023/11/13 03:18:34;;;;;;;1999.90;999.90;;;;;;;12.05;67.67;100515.84;10414522;28;20136;-63
2023/11/13 03:23:36;;;;;;;1999.90;999.90;;;;;;;13.64;63.52;100523.00;10414324;28;20075;-63
2023/11/13 03:28:39;;;;;;;1999.90;999.90;;;;;;;12.66;65.80;100530.06;10414304;28;20128;-62
2023/11/13 03:33:42;;;;;;;1999.90;999.90;;;;;;;11.98;67.50;100525.06;10413975;28;20481;-63
2023/11/13 03:38:45;;;;;;;1999.90;999.90;;;;;;;12.26;67.97;100542.41;10415895;28;20049;-62
2023/11/13 03:43:47;;;;;;;1999.90;999.90;;;;;;;12.25;67.29;100535.47;10421608;28;20077;-63
2023/11/13 03:48:50;;;;;;;1999.90;999.90;;;;;;;12.77;66.10;100530.16;10421584;28;20125;-63
2023/11/13 03:53:52;;;;;;;1999.90;999.90;;;;;;;13.26;64.92;100544.19;10420091;28;20052;-62
2023/11/13 03:58:55;;;;;;;1999.90;999.90;;;;;;;12.87;65.88;100528.53;10421402;28;20046;-63
2023/11/13 04:03:57;;;;;;;1999.90;999.90;;;;;;;13.22;65.71;100526.97;10421003;28;20059;-63
2023/11/13 04:09:00;;;;;;;1999.90;999.90;;;;;;;12.67;66.75;100527.31;10420613;28;20053;-62
2023/11/13 04:14:02;;;;;;;1999.90;999.90;;;;;;;12.76;67.67;100529.31;10420657;28;20056;-63
2023/11/13 04:19:05;;;;;;;1999.90;999.90;;;;;;;12.86;68.01;100516.38;10420348;28;20049;-63
2023/11/13 04:24:08;;;;;;;1999.90;999.90;;;;;;;12.97;67.80;100512.97;10420090;28;20568;-63
2023/11/13 04:29:11;;;;;;;1999.90;999.90;;;;;;;13.55;67.04;100495.59;10402416;28;20080;-63
2023/11/13 04:34:13;;;;;;;1999.90;999.90;;;;;;;13.44;66.63;100481.56;10420302;28;20049;-63
2023/11/13 04:39:16;;;;;;;1999.90;999.90;;;;;;;12.97;66.89;100466.50;10419614;28;20408;-64
2023/11/13 04:44:18;;;;;;;1999.90;999.90;;;;;;;12.77;69.59;100454.81;10419307;28;20060;-63
2023/11/13 04:49:21;;;;;;;1999.90;999.90;;;;;;;12.16;71.94;100438.16;10418986;28;20049;-63
2023/11/13 04:54:23;;;;;;;1999.90;999.90;;;;;;;12.50;72.19;100417.41;10418645;28;20512;-63
2023/11/13 04:59:25;;;;;;;1999.90;999.90;;;;;;;12.06;72.16;100425.66;10418963;28;20049;-62
2023/11/13 05:04:28;;;;;;;1999.90;999.90;;;;;;;12.43;71.92;100430.13;10418607;28;20487;-63
2023/11/13 05:09:30;;;;;;;1999.90;999.90;;;;;;;13.37;68.70;100432.03;10418242;28;20041;-62
2023/11/13 05:14:33;;;;;;;1999.90;999.90;;;;;;;13.39;69.24;100431.94;10416957;28;20427;-63
2023/11/13 05:19:35;;;;;;;1999.90;999.90;;;;;;;12.94;71.06;100424.66;10400509;28;20046;-63
2023/11/13 05:24:38;;;;;;;1999.90;999.90;;;;;;;13.56;68.84;100425.41;10417591;28;20064;-63
2023/11/13 05:29:42;;;;;;;1999.90;999.90;;;;;;;12.63;71.19;100420.81;10400252;28;20172;-63
2023/11/13 05:34:44;;;;;;;1999.90;999.90;;;;;;;13.37;71.47;100408.38;10417613;28;20050;-63
2023/11/13 05:39:47;;;;;;;1999.90;999.90;;;;;;;13.48;68.76;100401.47;10407486;23;20077;-65
2023/11/13 05:44:50;;;;;;;1999.90;999.90;;;;;;;12.88;71.79;100391.00;10399526;28;20064;-65
2023/11/13 05:49:52;;;;;;;1999.90;999.90;;;;;;;12.73;73.45;100387.69;10417002;28;20049;-65
2023/11/13 05:54:54;;;;;;;1999.90;999.90;;;;;;;13.19;71.69;100362.41;10416707;28;20045;-65
2023/11/13 05:59:57;;;;;;;1999.90;999.90;;;;;;;12.48;76.19;100365.00;10416744;28;20049;-65
2023/11/13 06:04:59;;;;;;;1999.90;999.90;;;;;;;12.48;77.24;100358.91;10416333;28;20049;-65
2023/11/13 06:10:06;;;;;;;1999.90;999.90;;;;;;;12.76;74.33;100358.56;10416150;28;20077;-65
2023/11/13 06:15:13;;;;;;;1999.90;999.90;;;;;;;13.51;72.85;100341.59;10399381;28;20099;-64
2023/11/13 06:20:15;;;;;;;1999.90;999.90;;;;;;;13.59;71.69;100338.38;10398689;28;20132;-65
2023/11/13 06:25:18;;;;;;;1999.90;999.90;;;;;;;13.83;69.99;100332.97;10415642;28;20478;-65
2023/11/13 06:30:20;;;;;;;1999.90;999.90;;;;;;;13.19;74.67;100347.47;10398036;28;20459;-65
2023/11/13 06:35:23;;;;;;;1999.90;999.90;;;;;;;12.97;76.07;100329.84;10415457;28;20045;-65
2023/11/13 06:40:25;;;;;;;1999.90;999.90;;;;;;;13.20;75.71;100340.44;10415458;28;20122;-65
2023/11/13 06:45:28;;;;;;;1999.90;999.90;;;;;;;13.71;71.56;100329.53;10414983;28;20045;-65
2023/11/13 06:50:30;;;;;;;1999.90;999.90;;;;;;;13.72;75.29;100325.94;10397716;28;20063;-65
2023/11/13 06:55:32;;;;;;;1999.90;999.90;;;;;;;13.26;72.27;100329.44;10415455;28;20052;-66
2023/11/13 07:00:35;;;;;;;1999.90;999.90;;;;;;;14.15;72.90;100332.22;10413868;28;20095;-65
2023/11/13 07:05:38;;;;;;;1999.90;999.90;;;;;;;14.34;70.65;100321.06;10414553;28;20041;-65
2023/11/13 07:10:43;;;;;;;1999.90;999.90;;;;;;;14.53;70.58;100325.69;10413749;28;20111;-65
2023/11/13 07:15:45;;;;;;;1999.90;999.90;;;;;;;13.98;73.26;100311.69;10419164;28;20051;-65
2023/11/13 07:20:50;;;;;;;1999.90;999.90;;;;;;;14.00;70.28;100302.69;10405110;28;20056;-65
2023/11/13 07:25:52;;;;;;;1999.90;999.90;;;;;;;14.18;72.43;100308.28;10405169;28;20500;-65
2023/11/13 07:30:57;;;;;;;1999.90;999.90;;;;;;;14.47;70.55;100287.50;10422338;28;20058;-65
2023/11/13 07:36:03;;;;;;;1999.90;999.90;;;;;;;14.92;69.28;100285.66;10404769;28;20053;-65
2023/11/13 07:41:10;;;;;;;1999.90;999.90;;;;;;;14.26;71.93;100278.72;10421854;28;20648;-66
2023/11/13 07:46:13;;;;;;;1999.90;999.90;;;;;;;14.48;72.09;100267.28;10421920;28;20046;-66
2023/11/13 07:51:17;;;;;;;1999.90;999.90;;;;;;;14.52;71.30;100257.31;10404110;28;20053;-65
2023/11/13 07:56:21;;;;;;;1999.90;999.90;;;;;;;14.54;72.77;100252.75;10421293;28;20053;-66
2023/11/13 08:01:24;;;;;;;1999.90;999.90;;;;;;;14.25;73.83;100245.44;10421144;28;20560;-66
2023/11/13 08:06:27;;;;;;;1999.90;999.90;;;;;;;14.05;75.17;100229.47;10420847;28;20049;-65
2023/11/13 08:11:29;;;;;;;1999.90;999.90;;;;;;;15.22;71.42;100229.50;10420724;28;20408;-65
2023/11/13 08:16:32;;;;;;;1999.90;999.90;;;;;;;14.99;73.03;100216.47;10420512;28;20124;-66
2023/11/13 08:21:35;;;;;;;1999.90;999.90;;;;;;;15.65;71.06;100211.72;10420253;28;20053;-66
2023/11/13 08:26:37;;;;;;;1999.90;999.90;;;;;;;15.55;72.26;100212.53;10419138;28;20077;-66
2023/11/13 08:31:40;;;;;;;1999.90;999.90;;;;;;;15.88;73.51;100202.63;10402419;28;20459;-66
2023/11/13 08:36:44;;;;;;;1999.90;999.90;;;;;;;15.65;73.49;100207.28;10419778;28;20073;-65
2023/11/13 08:41:47;;;;;;;1999.90;999.90;;;;;;;15.36;72.77;100180.81;10418421;28;20415;-66
2023/11/13 08:46:49;;;;;;;1999.90;999.90;;;;;;;15.26;76.04;100158.84;10419512;28;20132;-66
2023/11/13 08:51:52;;;;;;;1999.90;999.90;;;;;;;15.84;73.86;100155.53;10401711;28;20507;-66
2023/11/13 08:56:55;;;;;;;1999.90;999.90;;;;;;;16.04;73.74;100151.06;10418990;28;20503;-66
2023/11/13 09:01:58;;;;;;;1999.90;999.90;;;;;;;16.10;74.66;100150.53;10418938;28;20076;-66
2023/11/13 09:07:07;;;;;;;1999.90;999.90;;;;;;;15.67;78.11;100127.97;10418580;28;20061;-65
2023/11/13 09:12:12;;;;;;;1999.90;999.90;;;;;;;16.10;73.53;100114.38;10402042;28;20061;-66
2023/11/13 09:17:18;;;;;;;1999.90;999.90;;;;;;;16.43;74.86;100092.94;10418157;28;20049;-66
2023/11/13 09:22:21;;;;;;;1999.90;999.90;;;;;;;16.30;75.28;100098.53;10418236;28;20067;-67
2023/11/13 09:27:23;;;;;;;1999.90;999.90;;;;;;;16.32;75.82;100081.56;10417662;28;20055;-66
2023/11/13 09:32:25;;;;;;;1999.90;999.90;;;;;;;16.45;77.53;100057.47;10417841;28;20063;-66
2023/11/13 09:37:28;;;;;;;1999.90;999.90;;;;;;;16.65;74.86;100037.09;10399386;28;20054;-66
2023/11/13 09:42:33;;;;;;;1999.90;999.90;;;;;;;16.93;74.31;100020.41;10417229;28;20053;-67
2023/11/13 09:47:38;;;;;;;1999.90;999.90;;;;;;;16.41;79.38;100003.25;10400300;28;20038;-66
2023/11/13 09:52:45;;;;;;;1999.90;999.90;;;;;;;16.86;74.86;99991.94;10399417;28;20064;-66
2023/11/13 09:57:51;;;;;;;1999.90;999.90;;;;;;;17.12;75.76;100001.78;10416882;28;20050;-66
2023/11/13 10:02:55;;;;;;;1999.90;999.90;;;;;;;16.85;77.48;99992.91;10399420;28;20103;-66
2023/11/13 10:07:58;;;;;;;1999.90;999.90;;;;;;;16.92;77.46;99984.41;10416392;28;20128;-66
2023/11/13 10:13:04;;;;;;;1999.90;999.90;;;;;;;16.65;78.06;99981.59;10416198;28;20049;-66
2023/11/13 10:18:10;;;;;;;1999.90;999.90;;;;;;;16.83;79.23;99973.69;10415976;28;20121;-66
2023/11/13 10:23:14;;;;;;;1999.90;999.90;;;;;;;16.44;80.63;99963.34;10398966;28;20046;-66
2023/11/13 10:28:19;;;;;;;1999.90;999.90;;;;;;;16.04;81.11;99955.69;10415590;28;20465;-66
2023/11/13 10:33:22;;;;;;;1999.90;999.90;;;;;;;16.24;79.62;99906.28;10415412;28;20061;-66
2023/11/13 10:38:25;;;;;;;1999.90;999.90;;;;;;;16.04;83.64;99900.25;10415136;28;20141;-66
2023/11/13 10:43:32;;;;;;;1999.90;999.90;;;;;;;17.55;75.19;99883.78;10415459;28;20128;-66
2023/11/13 10:48:45;;;;;;;1999.90;999.90;;;;;;;16.72;77.63;99868.19;10414357;28;20479;-66
2023/11/13 10:53:48;;;;;;;1999.90;999.90;;;;;;;16.83;75.26;99851.28;10414958;28;20492;-67
2023/11/13 10:58:51;;;;;;;1999.90;999.90;;;;;;;17.47;72.56;99838.72;10414919;28;20382;-66
2023/11/13 11:03:57;;;;;;;1999.90;999.90;;;;;;;16.48;77.45;99806.19;10414781;28;20084;-66
2023/11/13 11:09:04;;;;;;;1999.90;999.90;;;;;;;16.59;79.12;99801.66;10381206;28;20051;-66
2023/11/13 11:14:40;;;;;;;1999.90;999.90;;;;;;;17.57;71.79;99762.69;10397630;28;20187;-66
2023/11/13 11:19:45;;;;;;;1999.90;999.90;;;;;;;16.56;78.20;99757.88;10382874;28;20046;-67
2023/11/13 11:25:11;;;;;;;1999.90;999.90;;;;;;;16.98;75.55;99728.16;10414516;28;20054;-67
2023/11/13 11:30:22;;;;;;;1999.90;999.90;;;;;;;17.27;76.52;99714.59;10413272;28;20045;-67
2023/11/13 11:35:28;;;;;;;;;;;;;;;17.70;75.96;99709.31;10414559;28;20050;-66
2023/11/13 11:40:33;;;;;;;1999.90;999.90;;;;;;;16.60;79.79;99710.84;10413221;28;19932;-67
2023/11/13 11:45:49;;;;;;;1999.90;999.90;;;;;;;17.24;78.45;99677.88;10412921;28;20059;-67
2023/11/13 11:51:03;;;;;;;1999.90;999.90;;;;;;;16.87;81.35;99657.03;10397029;28;20397;-67
2023/11/13 11:56:07;;;;;;;1999.90;999.90;;;;;;;17.70;75.19;99645.81;10413917;28;20052;-67
2023/11/13 12:01:09;;;;;;;1999.90;999.90;;;;;;;17.94;76.49;99623.84;10400365;28;20087;-67
2023/11/13 12:06:12;;;;;;;1999.90;999.90;;;;;;;17.71;79.31;99612.22;10403554;28;20056;-66
2023/11/13 12:11:16;;;;;;;1999.90;999.90;;;;;;;17.15;81.37;99601.31;10420982;28;20057;-67
2023/11/13 12:16:18;;;;;;;1999.90;999.90;;;;;;;17.97;80.38;99581.16;10420535;28;20125;-66
2023/11/13 12:21:24;;;;;;;1999.90;999.90;;;;;;;17.37;82.48;99554.94;10420450;28;20057;-67
2023/11/13 12:26:26;;;;;;;1999.90;999.90;;;;;;;17.97;81.58;99512.31;10420090;28;20398;-67
2023/11/13 12:31:29;;;;;;;1999.90;999.90;;;;;;;18.00;80.99;99496.09;10420065;28;20049;-66
2023/11/13 12:36:31;;;;;;;1999.90;999.90;;;;;;;18.06;80.87;99507.00;10419785;28;20184;-67
2023/11/13 12:41:34;;;;;;;1999.90;999.90;;;;;;;18.66;80.39;99522.41;10401962;28;20046;-67
2023/11/13 12:46:37;;;;;;;1999.90;999.90;;;;;;;17.81;86.39;99496.41;10402122;28;20107;-67
2023/11/13 12:51:42;;;;;;;1999.90;999.90;;;;;;;18.49;82.63;99491.63;10419410;28;20061;-68
2023/11/13 12:56:46;;;;;;;1999.90;999.90;;;;;;;17.95;82.86;99469.25;10419400;28;20048;-67
2023/11/13 13:01:49;;;;;;;1999.90;999.90;;;;;;;19.05;81.10;99484.44;10385542;28;20092;-66
2023/11/13 13:06:56;;;;;;;1999.90;999.90;;;;;;;18.82;84.36;99487.03;10418596;28;20045;-67
2023/11/13 13:11:59;;;;;;;1999.90;999.90;;;;;;;18.55;83.57;99494.44;10400627;28;20500;-68
2023/11/13 13:17:07;;;;;;;1999.90;999.90;;;;;;;19.35;81.75;99491.72;10400982;28;20052;-67
2023/11/13 13:22:12;;;;;;;1999.90;999.90;;;;;;;20.07;79.43;99491.28;10417273;28;20053;-67
2023/11/13 13:27:15;;;;;;;1999.90;999.90;;;;;;;19.31;80.47;99489.41;10417855;28;20100;-67
2023/11/13 13:32:17;;;;;;;1999.90;999.90;;;;;;;19.41;76.05;99483.88;10400456;28;20084;-68
2023/11/13 13:37:21;;;;;;;1999.90;999.90;;;;;;;20.51;75.55;99484.34;10417523;28;20053;-67
2023/11/13 13:42:25;;;;;;;1999.90;999.90;;;;;;;20.65;76.63;99475.56;10417269;28;20060;-67
2023/11/13 13:47:29;;;;;;;1999.90;999.90;;;;;;;19.96;79.32;99455.38;10416939;28;20042;-67
2023/11/13 13:52:32;;;;;;;1999.90;999.90;;;;;;;20.12;81.94;99477.47;10415776;28;20053;-67
2023/11/13 13:57:36;;;;;;;1999.90;999.90;;;;;;;20.19;82.20;99460.63;10399507;28;20054;-67
2023/11/13 14:02:38;;;;;;;1999.90;999.90;;;;;;;19.83;81.20;99447.22;10399401;28;20416;-67
2023/11/13 14:07:41;;;;;;;1999.90;999.90;;;;;;;20.63;76.55;99444.81;10416247;28;20572;-67
2023/11/13 14:12:43;;;;;;;1999.90;999.90;;;;;;;20.60;78.21;99460.13;10416263;28;20102;-68
2023/11/13 14:17:46;;;;;;;1999.90;999.90;;;;;;;20.65;77.53;99456.13;10398579;28;20482;-67
2023/11/13 14:22:48;;;;;;;1999.90;999.90;;;;;;;20.21;77.87;99442.66;10415174;28;20077;-67
2023/11/13 14:27:52;;;;;;;1999.90;999.90;;;;;;;20.70;77.45;99429.81;10415599;28;20050;-67
2023/11/13 14:32:56;;;;;;;1999.90;999.90;;;;;;;20.76;74.54;99432.53;10398315;28;20099;-67
2023/11/13 14:37:58;;;;;;;1999.90;999.90;;;;;;;20.95;77.54;99425.78;10397962;28;20057;-66
2023/11/13 14:43:01;;;;;;;1999.90;999.90;;;;;;;20.57;76.25;99417.94;10397843;28;20055;-67
2023/11/13 14:48:03;;;;;;;1999.90;999.90;;;;;;;20.96;76.11;99430.09;10397717;28;20049;-67
2023/11/13 14:53:05;;;;;;;1999.90;999.90;;;;;;;20.52;77.67;99440.78;10397652;28;20148;-66
2023/11/13 14:58:08;;;;;;;1999.90;999.90;;;;;;;19.87;77.14;99459.13;10415069;28;20395;-66
2023/11/13 15:03:10;;;;;;;1999.90;999.90;;;;;;;20.28;74.85;99489.78;10397648;28;20128;-66
2023/11/13 15:08:13;;;;;;;1999.90;999.90;;;;;;;20.59;74.44;99471.78;10397459;28;20084;-66
2023/11/13 15:13:15;;;;;;;1999.90;999.90;;;;;;;19.96;75.54;99489.09;10414933;28;20099;-66
2023/11/13 15:18:18;;;;;;;1999.90;999.90;;;;;;;19.89;72.96;99474.88;10414618;28;20416;-67
2023/11/13 15:23:20;;;;;;;1999.90;999.90;;;;;;;19.62;74.01;99475.25;10414514;28;20431;-66
2023/11/13 15:28:43;;;;;;;1999.90;999.90;;;;;;;19.86;72.68;99476.88;10414621;28;20046;-65
2023/11/13 15:33:46;;;;;;;1999.90;999.90;;;;;;;20.03;70.65;99480.19;10414745;28;20053;-66
2023/11/13 15:38:49;;;;;;;1999.90;999.90;;;;;;;19.56;72.64;99489.22;10421870;28;20061;-66
2023/11/13 15:43:52;;;;;;;1999.90;999.90;;;;;;;19.79;71.95;99514.97;10421942;28;20519;-66
2023/11/13 15:48:54;;;;;;;1999.90;999.90;;;;;;;18.89;73.22;99521.66;10421729;28;20049;-66
2023/11/13 15:53:56;;;;;;;1999.90;999.90;;;;;;;20.01;69.88;99522.06;10421521;28;20055;-66
2023/11/13 15:58:59;;;;;;;1999.90;999.90;;;;;;;19.60;69.05;99524.22;10387639;28;20404;-66
2023/11/13 16:04:01;;;;;;;1999.90;999.90;;;;;;;18.50;68.67;99538.34;10421044;28;20056;-67
2023/11/13 16:09:04;;;;;;;1999.90;999.90;;;;;;;19.33;66.68;99537.00;10420885;28;20471;-66
2023/11/13 16:14:07;;;;;;;1999.90;999.90;;;;;;;19.55;65.28;99556.63;10421301;28;20085;-66
2023/11/13 16:19:10;;;;;;;1999.90;999.90;;;;;;;19.90;64.03;99553.56;10402971;28;20068;-66
2023/11/13 16:24:12;;;;;;;1999.90;999.90;;;;;;;19.14;67.06;99558.69;10420476;28;20125;-66
2023/11/13 16:29:17;;;;;;;1999.90;999.90;;;;;;;19.40;67.31;99587.53;10419987;28;20041;-65
2023/11/13 16:34:20;;;;;;;1999.90;999.90;;;;;;;19.92;65.54;99592.22;10402681;28;20628;-66
2023/11/13 16:39:22;;;;;;;1999.90;999.90;;;;;;;18.38;67.64;99612.91;10419518;28;20066;-65
2023/11/13 16:44:25;;;;;;;1999.90;999.90;;;;;;;18.08;67.35;99632.94;10419734;28;20063;-66
2023/11/13 16:49:27;;;;;;;1999.90;999.90;;;;;;;18.76;65.10;99617.63;10400894;28;20046;-66
2023/11/13 16:54:31;;;;;;;1999.90;999.90;;;;;;;19.33;63.60;99634.38;10419244;28;20532;-66
2023/11/13 16:59:33;;;;;;;1999.90;999.90;;;;;;;18.66;64.51;99644.34;10419030;28;20058;-65
2023/11/13 17:04:36;;;;;;;1999.90;999.90;;;;;;;18.40;65.49;99651.66;10401415;28;20071;-65
2023/11/13 17:09:40;;;;;;;1999.90;999.90;;;;;;;17.91;67.16;99657.78;10418707;28;20042;-65
2023/11/13 17:14:43;;;;;;;1999.90;999.90;;;;;;;18.05;66.02;99667.69;10418490;28;20057;-65
2023/11/13 17:19:46;;;;;;;1999.90;999.90;;;;;;;18.16;65.40;99667.38;10418095;28;20053;-65
2023/11/13 17:24:48;;;;;;;1999.90;999.90;;;;;;;18.60;63.79;99668.06;10400503;28;20049;-65
2023/11/13 17:29:50;;;;;;;1999.90;999.90;;;;;;;18.29;65.67;99684.59;10417696;28;20051;-65
2023/11/13 17:34:54;;;;;;;1999.90;999.90;;;;;;;18.24;63.51;99693.06;10400037;28;20049;-65
2023/11/13 17:39:57;;;;;;;1999.90;999.90;;;;;;;17.95;63.87;99709.41;10417224;28;20053;-65
2023/11/13 17:45:03;;;;;;;1999.90;999.90;;;;;;;18.11;63.94;99719.22;10400013;28;20049;-66
2023/11/13 17:50:08;;;;;;;1999.90;999.90;;;;;;;17.53;63.74;99729.59;10425099;22;20507;-65
2023/11/13 17:55:12;;;;;;;1999.90;999.90;;;;;;;17.43;64.30;99740.31;10318462;28;20109;-65
2023/11/13 18:00:15;;;;;;;1999.90;999.90;;;;;;;17.52;62.86;99753.59;10335024;28;20050;-65
2023/11/13 18:05:17;;;;;;;1999.90;999.90;;;;;;;17.29;63.88;99766.53;10335062;28;20060;-65
2023/11/13 18:10:20;;;;;;;1999.90;999.90;;;;;;;17.64;63.09;99762.88;10334997;28;20181;-65
2023/11/13 18:15:24;;;;;;;1999.90;999.90;;;;;;;17.80;62.57;99768.25;10317355;28;20426;-66
2023/11/13 18:20:27;;;;;;;1999.90;999.90;;;;;;;17.16;63.49;99777.50;10334645;28;20080;-65
2023/11/13 18:25:34;;;;;;;1999.90;999.90;;;;;;;17.80;62.25;99783.28;10317884;28;20088;-65
2023/11/13 18:30:37;;;;;;;1999.90;999.90;;;;;;;17.95;62.40;99786.19;10334348;28;20054;-66
2023/11/13 18:35:40;;;;;;;1999.90;999.90;;;;;;;17.72;61.63;99793.84;10317069;28;20085;-65
2023/11/13 18:40:43;;;;;;;1999.90;999.90;;;;;;;17.14;64.00;99787.41;10334001;28;20050;-66
2023/11/13 18:45:49;;;;;;;1999.90;999.90;;;;;;;17.48;63.86;99779.50;10333981;28;20134;-65
2023/11/13 18:50:52;;;;;;;1999.90;999.90;;;;;;;17.54;63.13;99788.66;10333594;28;20397;-66
2023/11/13 18:55:54;;;;;;;1999.90;999.90;;;;;;;17.68;63.20;99776.63;10333831;28;20126;-65
2023/11/13 19:00:57;;;;;;;1999.90;999.90;;;;;;;17.50;63.36;99776.72;10333525;28;20076;-66
2023/11/13 19:05:59;;;;;;;1999.90;999.90;;;;;;;17.64;62.67;99790.19;10333727;28;20125;-65
2023/11/13 19:11:05;;;;;;;1999.90;999.90;;;;;;;17.46;63.13;99797.38;10320280;28;20055;-65
2023/11/13 19:16:08;;;;;;;1999.90;999.90;;;;;;;17.87;62.99;99788.81;10324411;28;20053;-65
2023/11/13 19:21:10;;;;;;;1999.90;999.90;;;;;;;16.99;64.76;99825.00;10341369;28;20046;-65
2023/11/13 19:26:13;;;;;;;1999.90;999.90;;;;;;;18.17;61.24;99819.19;10341199;28;20050;-65
2023/11/13 19:31:16;;;;;;;1999.90;999.90;;;;;;;17.52;63.55;99844.38;10340877;28;20050;-65
2023/11/13 19:36:18;;;;;;;1999.90;999.90;;;;;;;17.29;63.54;99836.13;10323513;28;20062;-65
2023/11/13 19:41:25;;;;;;;1999.90;999.90;;;;;;;17.43;63.64;99837.38;10340766;28;20121;-65
2023/11/13 19:46:27;;;;;;;1999.90;999.90;;;;;;;17.40;64.42;99842.97;10323949;28;20065;-65
2023/11/13 19:51:30;;;;;;;1999.90;999.90;;;;;;;17.90;62.39;99844.09;10339934;28;20087;-65
2023/11/13 19:56:33;;;;;;;1999.90;999.90;;;;;;;17.75;62.58;99841.19;10322816;28;20057;-65
2023/11/13 20:01:39;;;;;;;1999.90;999.90;;;;;;;17.49;62.00;99846.50;10339887;28;20125;-66
2023/11/13 20:06:42;;;;;;;1999.90;999.90;;;;;;;18.14;61.66;99860.09;10323484;28;20051;-65
2023/11/13 20:11:44;;;;;;;1999.90;999.90;;;;;;;16.94;65.20;99869.56;10339234;28;20052;-66
2023/11/13 20:16:47;;;;;;;1999.90;999.90;;;;;;;17.96;61.68;99870.78;10339234;28;20503;-66
2023/11/13 20:21:53;;;;;;;1999.90;999.90;;;;;;;17.87;62.90;99874.38;10339115;28;20046;-65
2023/11/13 20:26:55;;;;;;;1999.90;999.90;;;;;;;17.63;60.69;99882.97;10338920;28;20081;-65
2023/11/13 20:31:57;;;;;;;1999.90;999.90;;;;;;;17.67;63.34;99889.63;10338815;28;20129;-65
2023/11/13 20:37:00;;;;;;;1999.90;999.90;;;;;;;17.56;61.97;99879.28;10338511;28;20081;-66
2023/11/13 20:42:02;;;;;;;1999.90;999.90;;;;;;;17.52;63.17;99905.25;10338440;28;20058;-66
2023/11/13 20:47:05;;;;;;;1999.90;999.90;;;;;;;17.20;64.61;99900.53;10304725;28;20387;-65
2023/11/13 20:52:09;;;;;;;1999.90;999.90;;;;;;;18.05;61.44;99900.78;10337724;28;20112;-65
2023/11/13 20:57:13;;;;;;;1999.90;999.90;;;;;;;18.35;61.76;99891.44;10337719;28;20046;-65
2023/11/13 21:02:15;;;;;;;1999.90;999.90;;;;;;;17.17;63.69;99898.19;10337440;28;20046;-66
2023/11/13 21:07:18;;;;;;;1999.90;999.90;;;;;;;17.62;61.67;99908.63;10337440;28;20182;-65
2023/11/13 21:12:20;;;;;;;1999.90;999.90;;;;;;;17.92;61.51;99901.22;10319973;28;20417;-66
2023/11/13 21:17:23;;;;;;;1999.90;999.90;;;;;;;18.23;59.75;99900.69;10336927;28;20058;-65
2023/11/13 21:22:26;;;;;;;1999.90;999.90;;;;;;;18.64;59.27;99900.81;10336750;28;20060;-66
2023/11/13 21:27:28;;;;;;;1999.90;999.90;;;;;;;17.64;61.76;99917.22;10336240;28;20484;-65
2023/11/13 21:32:31;;;;;;;1999.90;999.90;;;;;;;17.25;62.43;99906.22;10336021;28;20050;-65
2023/11/13 21:37:34;;;;;;;1999.90;999.90;;;;;;;18.26;61.29;99910.97;10319045;28;20163;-66
2023/11/13 21:42:36;;;;;;;1999.90;999.90;;;;;;;17.67;63.21;99928.47;10318903;28;20050;-66
2023/11/13 21:47:40;;;;;;;1999.90;999.90;;;;;;;17.91;62.52;99926.03;10335643;28;20056;-65
2023/11/13 21:52:43;;;;;;;1999.90;999.90;;;;;;;18.41;60.21;99926.25;10318388;28;20062;-65
2023/11/13 21:57:45;;;;;;;1999.90;999.90;;;;;;;18.20;61.39;99919.56;10335429;28;20457;-66
2023/11/13 22:02:48;;;;;;;1999.90;999.90;;;;;;;17.64;61.93;99930.47;10317933;28;20053;-66
2023/11/13 22:07:51;;;;;;;1999.90;999.90;;;;;;;18.23;61.42;99915.78;10335064;28;20050;-65